createdAt,value
2018-04-02T00:01:14.307Z,26.83
2018-04-02T00:03:40.295Z,27.87
2018-04-02T00:06:06.985Z,27.20
2018-04-02T00:08:32.970Z,26.83
2018-04-02T00:10:58.928Z,24.80
2018-04-02T00:13:24.891Z,24.77
2018-04-02T00:15:51.655Z,25.57
2018-04-02T00:18:17.589Z,24.33
2018-04-02T00:20:43.554Z,24.50
2018-04-02T00:23:10.273Z,25.70
2018-04-02T00:25:36.249Z,26.10
2018-04-02T00:28:02.224Z,25.50
2018-04-02T00:30:28.163Z,26.60
2018-04-02T00:32:54.859Z,24.13
2018-04-02T00:35:20.814Z,24.67
2018-04-02T00:37:47.523Z,25.30
2018-04-02T00:40:13.507Z,24.23
2018-04-02T00:42:39.503Z,24.97
2018-04-02T00:45:05.508Z,23.50
2018-04-02T00:47:32.185Z,24.10
2018-04-02T00:49:58.136Z,24.60
2018-04-02T00:52:24.092Z,24.00
2018-04-02T00:54:50.043Z,24.10
2018-04-02T00:57:16.003Z,25.23
2018-04-02T00:59:42.745Z,25.13
2018-04-02T01:02:10.225Z,25.27
2018-04-02T01:04:36.175Z,26.30
2018-04-02T01:07:02.114Z,27.10
2018-04-02T01:09:28.065Z,28.20
2018-04-02T01:11:54.750Z,26.30
2018-04-02T01:14:20.747Z,28.03
2018-04-02T01:16:46.701Z,27.03
2018-04-02T01:19:12.670Z,26.17
2018-04-02T01:21:38.680Z,27.17
2018-04-02T01:24:04.634Z,25.80
2018-04-02T01:26:30.594Z,25.77
2018-04-02T01:28:57.307Z,26.23
2018-04-02T01:31:23.247Z,24.90
2018-04-02T01:33:49.954Z,23.13
2018-04-02T01:36:16.476Z,25.23
2018-04-02T01:38:42.426Z,23.13
2018-04-02T01:41:08.391Z,24.83
2018-04-02T01:43:35.243Z,22.93
2018-04-02T01:46:01.212Z,21.80
2018-04-02T01:48:27.891Z,21.63
2018-04-02T01:50:53.844Z,23.77
2018-04-02T01:53:19.796Z,23.17
2018-04-02T01:55:46.532Z,22.57
2018-04-02T01:58:13.235Z,23.87
2018-04-02T02:00:39.197Z,24.27
2018-04-02T02:03:05.162Z,24.67
2018-04-02T02:05:31.152Z,23.13
2018-04-02T02:07:57.891Z,25.70
2018-04-02T02:10:23.847Z,24.17
2018-04-02T02:12:49.794Z,26.40
2018-04-02T02:15:16.499Z,24.57
2018-04-02T02:17:42.444Z,26.03
2018-04-02T02:20:09.374Z,27.00
2018-04-02T02:22:36.095Z,27.00
2018-04-02T02:25:02.062Z,26.90
2018-04-02T02:27:28.035Z,28.73
2018-04-02T02:29:53.990Z,28.73
2018-04-02T02:32:19.937Z,30.47
2018-04-02T02:34:46.558Z,30.43
2018-04-02T02:37:12.516Z,29.00
2018-04-02T02:39:38.465Z,29.90
2018-04-02T02:42:05.193Z,29.37
2018-04-02T02:44:31.963Z,31.10
2018-04-02T02:46:57.928Z,32.10
2018-04-02T02:49:23.893Z,33.63
2018-04-02T02:51:49.921Z,32.93
2018-04-02T02:54:15.881Z,34.50
2018-04-02T02:56:41.840Z,33.43
2018-04-02T02:59:07.793Z,36.57
2018-04-02T03:01:33.738Z,34.67
2018-04-02T03:03:59.713Z,37.97
2018-04-02T03:06:25.673Z,35.67
2018-04-02T03:08:51.643Z,36.07
2018-04-02T03:11:17.620Z,36.20
2018-04-02T03:13:44.587Z,34.67
2018-04-02T03:16:11.276Z,34.80
2018-04-02T03:18:38.330Z,38.30
2018-04-02T03:21:04.240Z,37.17
2018-04-02T03:23:30.212Z,36.50
2018-04-02T03:25:56.178Z,37.67
2018-04-02T03:28:22.148Z,36.23
2018-04-02T03:30:48.133Z,39.50
2018-04-02T03:33:14.107Z,38.80
2018-04-02T03:35:40.075Z,37.83
2018-04-02T03:38:06.010Z,38.77
2018-04-02T03:40:32.739Z,39.10
2018-04-02T03:42:59.489Z,38.37
2018-04-02T03:45:25.440Z,36.73
2018-04-02T03:47:51.404Z,40.43
2018-04-02T03:50:18.119Z,38.73
2018-04-02T03:52:44.089Z,37.43
2018-04-02T03:55:10.086Z,37.03
2018-04-02T03:57:36.808Z,36.83
2018-04-02T04:00:02.751Z,38.10
2018-04-02T04:02:29.461Z,40.63
2018-04-02T04:04:55.413Z,37.13
2018-04-02T04:07:21.364Z,38.60
2018-04-02T04:09:47.307Z,37.50
2018-04-02T04:12:13.253Z,39.17
2018-04-02T04:14:39.963Z,37.57
2018-04-02T04:17:05.981Z,39.30
2018-04-02T04:19:31.931Z,40.23
2018-04-02T04:21:58.681Z,40.30
2018-04-02T04:24:25.694Z,36.97
2018-04-02T04:26:52.482Z,38.83
2018-04-02T04:29:18.433Z,38.60
2018-04-02T04:31:44.399Z,37.13
2018-04-02T04:34:10.325Z,38.50
2018-04-02T04:36:36.262Z,38.50
2018-04-02T04:39:02.242Z,41.80
2018-04-02T04:41:28.265Z,39.20
2018-04-02T04:43:54.208Z,37.33
2018-04-02T04:46:20.145Z,37.53
2018-04-02T04:48:46.140Z,39.50
2018-04-02T04:51:12.120Z,42.13
2018-04-02T04:53:38.796Z,38.93
2018-04-02T04:56:04.770Z,39.27
2018-04-02T04:58:31.474Z,43.43
2018-04-02T05:00:57.429Z,41.37
2018-04-02T05:03:24.149Z,39.07
2018-04-02T05:05:50.092Z,39.90
2018-04-02T05:08:16.803Z,42.60
2018-04-02T05:10:42.767Z,44.53
2018-04-02T05:13:08.727Z,39.43
2018-04-02T05:15:34.693Z,42.87
2018-04-02T05:18:00.671Z,45.70
2018-04-02T05:20:26.684Z,45.93
2018-04-02T05:22:53.611Z,41.60
2018-04-02T05:25:19.532Z,40.63
2018-04-02T05:27:50.233Z,44.37
2018-04-02T05:30:16.208Z,46.37
2018-04-02T05:32:42.894Z,40.73
2018-04-02T05:35:08.865Z,42.60
2018-04-02T05:37:35.562Z,45.23
2018-04-02T05:40:01.531Z,42.47
2018-04-02T05:42:28.261Z,42.67
2018-04-02T05:44:54.944Z,44.10
2018-04-02T05:47:20.877Z,42.93
2018-04-02T05:49:46.813Z,43.73
2018-04-02T05:52:12.784Z,44.57
2018-04-02T05:54:38.756Z,41.63
2018-04-02T05:57:04.700Z,43.83
2018-04-02T05:59:31.413Z,41.97
2018-04-02T06:01:57.365Z,42.77
2018-04-02T06:04:23.297Z,40.23
2018-04-02T06:06:49.267Z,42.83
2018-04-02T06:09:15.217Z,44.87
2018-04-02T06:11:41.195Z,40.73
2018-04-02T06:14:07.163Z,46.67
2018-04-02T06:16:33.087Z,40.30
2018-04-02T06:18:59.051Z,42.50
2018-04-02T06:21:24.984Z,42.60
2018-04-02T06:23:52.556Z,41.00
2018-04-02T06:26:19.265Z,42.27
2018-04-02T06:28:45.209Z,39.67
2018-04-02T06:31:11.892Z,41.30
2018-04-02T06:33:37.841Z,41.37
2018-04-02T06:36:03.782Z,44.20
2018-04-02T06:38:38.000Z,42.03
2018-04-02T06:41:03.972Z,41.07
2018-04-02T06:43:31.599Z,40.80
2018-04-02T06:45:59.765Z,42.33
2018-04-02T06:48:46.352Z,40.03
2018-04-02T06:51:12.329Z,44.77
2018-04-02T06:53:39.963Z,42.33
2018-04-02T06:56:06.488Z,43.03
2018-04-02T06:58:33.445Z,43.77
2018-04-02T07:01:01.131Z,42.70
2018-04-02T07:03:27.857Z,41.10
2018-04-02T07:05:53.816Z,41.93
2018-04-02T07:11:40.500Z,42.00
2018-04-02T07:14:07.272Z,42.93
2018-04-02T07:16:33.240Z,43.67
2018-04-02T07:18:59.272Z,45.20
2018-04-02T07:21:25.268Z,48.00
2018-04-02T07:26:33.701Z,42.67
2018-04-02T07:29:10.288Z,45.03
2018-04-02T07:31:38.649Z,45.87
2018-04-02T07:34:11.241Z,46.07
2018-04-02T07:36:41.998Z,44.40
2018-04-02T07:39:09.912Z,42.40
2018-04-02T07:41:50.949Z,43.73
2018-04-02T07:44:20.420Z,44.57
2018-04-02T07:46:46.391Z,48.00
2018-04-02T07:49:13.571Z,42.27
2018-04-02T07:51:40.982Z,44.40
2018-04-02T07:54:07.037Z,45.83
2018-04-02T07:56:33.964Z,44.60
2018-04-02T07:58:59.955Z,43.33
2018-04-02T08:01:30.390Z,46.63
2018-04-02T08:03:56.446Z,45.47
2018-04-02T08:06:23.194Z,48.10
2018-04-02T08:11:23.144Z,48.87
2018-04-02T08:14:06.625Z,47.03
2018-04-02T08:16:32.628Z,49.33
2018-04-02T08:18:58.592Z,46.67
2018-04-02T08:21:25.654Z,52.40
2018-04-02T08:23:53.990Z,52.00
2018-04-02T08:26:25.657Z,52.97
2018-04-02T08:28:51.704Z,53.43
2018-04-02T08:31:17.718Z,52.07
2018-04-02T08:36:33.066Z,56.13
2018-04-02T08:38:59.480Z,52.63
2018-04-02T08:41:25.646Z,53.37
2018-04-02T08:43:52.588Z,51.63
2018-04-02T08:46:18.543Z,51.80
2018-04-02T08:48:45.904Z,54.30
2018-04-02T08:51:12.122Z,53.60
2018-04-02T08:53:38.120Z,55.43
2018-04-02T08:56:04.112Z,52.70
2018-04-02T08:58:32.823Z,52.57
2018-04-02T09:00:58.805Z,51.27
2018-04-02T09:03:25.515Z,52.70
2018-04-02T09:05:51.506Z,46.57
2018-04-02T09:08:18.522Z,50.27
2018-04-02T09:10:44.540Z,49.80
2018-04-02T09:13:11.495Z,49.27
2018-04-02T09:15:37.564Z,52.20
2018-04-02T09:18:04.571Z,49.87
2018-04-02T09:20:30.656Z,48.10
2018-04-02T09:22:57.369Z,48.27
2018-04-02T09:25:23.379Z,48.27
2018-04-02T09:27:52.743Z,47.40
2018-04-02T09:30:19.345Z,46.77
2018-04-02T09:32:45.335Z,45.60
2018-04-02T09:35:11.299Z,46.90
2018-04-02T09:37:37.274Z,46.83
2018-04-02T09:40:03.865Z,47.23
2018-04-02T09:45:46.127Z,47.43
2018-04-02T09:48:12.826Z,50.83
2018-04-02T09:50:38.776Z,48.20
2018-04-02T09:53:04.725Z,46.43
2018-04-02T09:55:30.725Z,49.23
2018-04-02T09:57:57.459Z,46.87
2018-04-02T10:00:30.483Z,48.37
2018-04-02T10:02:56.461Z,47.83
2018-04-02T10:05:23.500Z,46.70
2018-04-02T10:07:50.769Z,45.33
2018-04-02T10:10:16.809Z,46.90
2018-04-02T10:12:43.486Z,45.17
2018-04-02T10:15:09.447Z,44.47
2018-04-02T10:17:37.042Z,45.33
2018-04-02T10:20:09.670Z,45.37
2018-04-02T10:22:36.373Z,42.37
2018-04-02T10:25:05.944Z,44.53
2018-04-02T10:27:36.179Z,41.47
2018-04-02T10:30:03.455Z,40.73
2018-04-02T10:32:31.828Z,42.17
2018-04-02T10:35:01.126Z,41.03
2018-04-02T10:37:29.314Z,39.60
2018-04-02T10:39:56.088Z,40.13
2018-04-02T10:42:25.031Z,38.67
2018-04-02T10:44:51.584Z,38.23
2018-04-02T10:47:18.280Z,35.33
2018-04-02T10:49:44.285Z,34.67
2018-04-02T10:52:37.860Z,35.43
2018-04-02T10:55:07.414Z,32.70
2018-04-02T10:57:33.381Z,32.07
2018-04-02T10:59:59.456Z,34.23
2018-04-02T11:02:25.451Z,29.07
2018-04-02T11:04:52.166Z,30.70
2018-04-02T11:07:18.792Z,30.43
2018-04-02T11:09:44.860Z,29.43
2018-04-02T11:12:10.855Z,33.63
2018-04-02T11:14:37.598Z,34.43
2018-04-02T11:17:04.328Z,33.50
2018-04-02T11:19:31.112Z,31.33
2018-04-02T11:21:58.495Z,31.17
2018-04-02T11:26:56.731Z,35.07
2018-04-02T11:29:23.586Z,34.53
2018-04-02T11:31:50.434Z,33.87
2018-04-02T11:34:16.616Z,32.73
2018-04-02T11:36:43.323Z,33.60
2018-04-02T11:39:11.013Z,30.40
2018-04-02T11:41:39.041Z,31.23
2018-04-02T11:44:05.022Z,32.03
2018-04-02T11:46:31.257Z,29.90
2018-04-02T11:48:57.991Z,29.37
2018-04-02T11:51:27.186Z,27.87
2018-04-02T11:53:55.676Z,27.20
2018-04-02T11:56:22.903Z,25.63
2018-04-02T11:58:48.897Z,24.97
2018-04-02T12:01:16.784Z,26.03
2018-04-02T12:03:50.762Z,25.67
2018-04-02T12:06:17.468Z,23.23
2018-04-02T12:08:43.595Z,24.20
2018-04-02T12:13:52.896Z,23.33
2018-04-02T12:16:18.858Z,22.87
2018-04-02T12:18:44.910Z,22.77
2018-04-02T12:21:10.942Z,21.53
2018-04-02T12:23:36.974Z,20.93
2018-04-02T12:26:12.177Z,21.63
2018-04-02T12:28:39.578Z,20.90
2018-04-02T12:31:05.557Z,20.30
2018-04-02T12:33:31.519Z,20.70
2018-04-02T12:35:57.547Z,20.23
2018-04-02T12:38:23.555Z,19.33
2018-04-02T12:40:49.566Z,19.67
2018-04-02T12:43:15.587Z,19.43
2018-04-02T12:45:41.589Z,17.70
2018-04-02T12:48:07.571Z,16.30
2018-04-02T12:50:34.376Z,17.40
2018-04-02T12:53:00.329Z,18.20
2018-04-02T12:58:29.392Z,17.00
2018-04-02T13:00:55.436Z,17.00
2018-04-02T13:03:21.424Z,16.73
2018-04-02T13:05:48.636Z,17.10
2018-04-02T13:08:15.268Z,16.67
2018-04-02T13:10:42.104Z,17.80
2018-04-02T13:13:08.026Z,18.00
2018-04-02T13:15:36.583Z,17.47
2018-04-02T13:18:03.144Z,17.47
2018-04-02T13:20:30.234Z,18.17
2018-04-02T13:22:56.202Z,17.70
2018-04-02T13:25:22.904Z,18.37
2018-04-02T13:27:48.877Z,18.63
2018-04-02T13:30:15.631Z,18.73
2018-04-02T13:32:42.651Z,19.17
2018-04-02T13:35:08.636Z,18.57
2018-04-02T13:37:34.645Z,17.53
2018-04-02T13:40:00.710Z,18.57
2018-04-02T13:42:26.687Z,19.83
2018-04-02T13:44:53.356Z,17.60
2018-04-02T13:47:19.342Z,17.07
2018-04-02T13:49:45.429Z,17.77
2018-04-02T13:52:11.413Z,16.77
2018-04-02T13:54:38.181Z,17.93
2018-04-02T13:57:04.147Z,16.07
2018-04-02T14:02:08.173Z,16.10
2018-04-02T14:04:34.889Z,16.83
2018-04-02T14:07:01.762Z,16.73
2018-04-02T14:09:27.864Z,17.07
2018-04-02T14:11:54.603Z,16.27
2018-04-02T14:14:21.389Z,16.27
2018-04-02T14:16:47.388Z,17.17
2018-04-02T14:19:13.996Z,16.17
2018-04-02T14:21:40.709Z,16.70
2018-04-02T14:24:09.051Z,16.43
2018-04-02T14:26:36.795Z,14.67
2018-04-02T14:29:06.438Z,14.37
2018-04-02T14:31:32.632Z,14.70
2018-04-02T14:33:58.653Z,13.90
2018-04-02T14:36:24.790Z,13.10
2018-04-02T14:38:50.965Z,13.07
2018-04-02T14:41:17.729Z,13.07
2018-04-02T14:43:54.714Z,12.27
2018-04-02T14:46:20.770Z,11.67
2018-04-02T14:48:46.724Z,11.90
2018-04-02T14:51:13.514Z,11.73
2018-04-02T14:53:39.523Z,10.87
2018-04-02T14:56:05.535Z,10.83
2018-04-02T14:58:31.494Z,11.00
2018-04-02T15:00:57.554Z,11.50
2018-04-02T15:03:23.880Z,11.40
2018-04-02T15:05:49.818Z,10.47
2018-04-02T15:08:15.777Z,10.57
2018-04-02T15:10:44.292Z,10.90
2018-04-02T15:13:10.273Z,9.70
2018-04-02T15:15:37.232Z,9.73
2018-04-02T15:18:04.917Z,8.20
2018-04-02T15:20:30.958Z,6.30
2018-04-02T15:23:00.322Z,6.10
2018-04-02T15:25:26.317Z,6.00
2018-04-02T15:27:58.492Z,5.13
2018-04-02T15:30:25.248Z,5.70
2018-04-02T15:32:51.276Z,5.90
2018-04-02T15:35:17.216Z,5.60
2018-04-02T15:37:43.199Z,6.17
2018-04-02T15:40:09.249Z,5.87
2018-04-02T15:42:35.244Z,6.43
2018-04-02T15:45:01.216Z,6.50
2018-04-02T15:47:27.977Z,6.60
2018-04-02T15:49:54.727Z,7.50
2018-04-02T15:52:21.433Z,6.93
2018-04-02T15:54:47.421Z,9.30
2018-04-02T15:57:13.409Z,7.60
2018-04-02T15:59:39.445Z,8.20
2018-04-02T16:02:05.422Z,7.60
2018-04-02T16:04:32.223Z,7.10
2018-04-02T16:06:58.235Z,9.20
2018-04-02T16:09:24.317Z,11.27
2018-04-02T16:11:51.049Z,8.27
2018-04-02T16:14:17.734Z,7.83
2018-04-02T16:16:44.419Z,6.70
2018-04-02T16:19:11.149Z,6.57
2018-04-02T16:21:37.927Z,7.00
2018-04-02T16:24:03.904Z,6.73
2018-04-02T16:26:30.623Z,7.57
2018-04-02T16:28:57.373Z,7.83
2018-04-02T16:31:27.751Z,7.43
2018-04-02T16:33:53.733Z,7.20
2018-04-02T16:36:19.748Z,7.00
2018-04-02T16:38:46.566Z,6.27
2018-04-02T16:41:12.544Z,7.17
2018-04-02T16:43:38.527Z,6.73
2018-04-02T16:46:05.254Z,6.87
2018-04-02T16:48:33.300Z,6.57
2018-04-02T16:50:59.291Z,7.13
2018-04-02T16:53:25.283Z,6.90
2018-04-02T16:55:51.258Z,6.17
2018-04-02T16:58:17.236Z,6.10
2018-04-02T17:00:43.964Z,6.70
2018-04-02T17:03:10.606Z,6.27
2018-04-02T17:05:36.613Z,6.17
2018-04-02T17:08:02.591Z,5.70
2018-04-02T17:14:19.447Z,6.53
2018-04-02T17:16:45.481Z,6.13
2018-04-02T17:19:11.520Z,6.70
2018-04-02T17:21:37.675Z,6.27
2018-04-02T17:24:05.582Z,6.10
2018-04-02T17:26:31.788Z,6.57
2018-04-02T17:28:58.493Z,6.67
2018-04-02T17:31:24.624Z,6.50
2018-04-02T17:33:50.719Z,6.27
2018-04-02T17:36:17.720Z,6.20
2018-04-02T17:38:44.928Z,6.10
2018-04-02T17:41:11.256Z,5.73
2018-04-02T17:43:37.261Z,5.80
2018-04-02T17:46:03.630Z,5.40
2018-04-02T17:48:30.388Z,5.30
2018-04-02T17:50:59.222Z,5.60
2018-04-02T17:53:25.581Z,5.40
2018-04-02T17:55:51.592Z,5.93
2018-04-02T17:58:18.386Z,5.90
2018-04-02T18:00:44.407Z,5.50
2018-04-02T18:03:10.378Z,6.83
2018-04-02T18:05:37.129Z,6.73
2018-04-02T18:08:03.996Z,6.57
2018-04-02T18:10:30.646Z,6.63
2018-04-02T18:12:56.651Z,5.83
2018-04-02T18:15:22.641Z,5.50
2018-04-02T18:17:48.614Z,6.10
2018-04-02T18:20:14.693Z,5.90
2018-04-02T18:22:40.710Z,6.17
2018-04-02T18:25:06.681Z,5.73
2018-04-02T18:27:32.863Z,5.70
2018-04-02T18:29:58.900Z,6.37
2018-04-02T18:32:24.900Z,6.07
2018-04-02T18:34:51.411Z,6.07
2018-04-02T18:37:17.417Z,6.17
2018-04-02T18:39:45.828Z,6.20
2018-04-02T18:42:12.169Z,5.93
2018-04-02T18:44:39.282Z,6.10
2018-04-02T18:47:08.295Z,6.23
2018-04-02T18:49:35.255Z,6.07
2018-04-02T18:52:04.627Z,5.27
2018-04-02T18:54:30.659Z,6.47
2018-04-02T18:56:56.647Z,5.97
2018-04-02T18:59:22.598Z,6.40
2018-04-02T19:01:48.640Z,5.43
2018-04-02T19:04:19.145Z,5.87
2018-04-02T19:06:45.187Z,5.43
2018-04-02T19:09:13.319Z,5.50
2018-04-02T19:11:39.919Z,4.90
2018-04-02T19:14:08.103Z,5.50
2018-04-02T19:16:34.058Z,5.50
2018-04-02T19:19:00.285Z,5.10
2018-04-02T19:21:26.284Z,5.07
2018-04-02T19:23:53.260Z,5.33
2018-04-02T19:26:20.698Z,5.70
2018-04-02T19:28:46.689Z,6.37
2018-04-02T19:31:13.327Z,6.20
2018-04-02T19:33:39.306Z,6.27
2018-04-02T19:36:05.387Z,5.97
2018-04-02T19:38:31.368Z,6.10
2018-04-02T19:40:58.554Z,6.07
2018-04-02T19:43:24.595Z,6.40
2018-04-02T19:45:50.608Z,6.57
2018-04-02T19:48:16.586Z,6.60
2018-04-02T19:50:42.640Z,6.10
2018-04-02T19:53:08.652Z,7.00
2018-04-02T19:55:36.191Z,6.20
2018-04-02T19:58:02.201Z,6.57
2018-04-02T20:00:28.492Z,7.03
2018-04-02T20:02:56.085Z,6.37
